sensor_id;sensor_type;location;lat;lon;timestamp;temperature;humidity
49711;DHT22;35602;44.534;18.696;2023-05-10T00:04:11;22.60;55.70
49711;DHT22;35602;44.534;18.696;2023-05-10T00:09:12;22.60;55.70
49711;DHT22;35602;44.534;18.696;2023-05-10T00:14:13;22.60;55.70
49711;DHT22;35602;44.534;18.696;2023-05-10T00:19:13;22.60;55.80
49711;DHT22;35602;44.534;18.696;2023-05-10T00:24:14;22.60;55.80
49711;DHT22;35602;44.534;18.696;2023-05-10T00:29:15;22.60;55.80
49711;DHT22;35602;44.534;18.696;2023-05-10T00:34:16;22.60;55.90
49711;DHT22;35602;44.534;18.696;2023-05-10T00:39:17;22.60;56.60
49711;DHT22;35602;44.534;18.696;2023-05-10T00:44:18;22.60;55.90
49711;DHT22;35602;44.534;18.696;2023-05-10T00:49:19;22.60;55.90
49711;DHT22;35602;44.534;18.696;2023-05-10T00:54:21;22.60;55.90
49711;DHT22;35602;44.534;18.696;2023-05-10T00:59:22;22.60;56.00
49711;DHT22;35602;44.534;18.696;2023-05-10T01:04:24;22.60;55.90
49711;DHT22;35602;44.534;18.696;2023-05-10T01:09:28;22.60;56.00
49711;DHT22;35602;44.534;18.696;2023-05-10T01:14:30;22.60;56.00
49711;DHT22;35602;44.534;18.696;2023-05-10T01:19:31;22.60;56.00
49711;DHT22;35602;44.534;18.696;2023-05-10T01:38:13;22.60;56.10
49711;DHT22;35602;44.534;18.696;2023-05-10T01:43:30;22.60;56.10
49711;DHT22;35602;44.534;18.696;2023-05-10T01:48:33;22.60;56.10
49711;DHT22;35602;44.534;18.696;2023-05-10T01:53:37;22.60;56.10
49711;DHT22;35602;44.534;18.696;2023-05-10T01:58:40;22.60;56.70
49711;DHT22;35602;44.534;18.696;2023-05-10T02:03:49;22.60;56.80
49711;DHT22;35602;44.534;18.696;2023-05-10T02:08:52;22.60;56.10
49711;DHT22;35602;44.534;18.696;2023-05-10T02:13:55;22.60;56.20
49711;DHT22;35602;44.534;18.696;2023-05-10T02:18:57;22.60;56.20
49711;DHT22;35602;44.534;18.696;2023-05-10T02:24:01;22.60;56.20
49711;DHT22;35602;44.534;18.696;2023-05-10T02:29:03;22.60;56.20
49711;DHT22;35602;44.534;18.696;2023-05-10T02:34:06;22.60;56.20
49711;DHT22;35602;44.534;18.696;2023-05-10T02:39:08;22.60;56.30
49711;DHT22;35602;44.534;18.696;2023-05-10T02:44:15;22.60;56.20
49711;DHT22;35602;44.534;18.696;2023-05-10T02:49:16;22.60;56.30
49711;DHT22;35602;44.534;18.696;2023-05-10T02:54:24;22.60;56.30
49711;DHT22;35602;44.534;18.696;2023-05-10T02:59:28;22.60;56.30
49711;DHT22;35602;44.534;18.696;2023-05-10T03:04:29;22.60;56.20
49711;DHT22;35602;44.534;18.696;2023-05-10T03:09:30;22.60;56.30
49711;DHT22;35602;44.534;18.696;2023-05-10T03:14:49;22.50;56.30
49711;DHT22;35602;44.534;18.696;2023-05-10T03:19:59;22.50;56.30
49711;DHT22;35602;44.534;18.696;2023-05-10T03:25:06;22.60;56.30
49711;DHT22;35602;44.534;18.696;2023-05-10T03:30:11;22.60;56.30
49711;DHT22;35602;44.534;18.696;2023-05-10T03:35:12;22.60;56.30
49711;DHT22;35602;44.534;18.696;2023-05-10T03:40:14;22.50;56.30
49711;DHT22;35602;44.534;18.696;2023-05-10T03:45:16;22.50;56.40
49711;DHT22;35602;44.534;18.696;2023-05-10T03:50:16;22.60;56.40
49711;DHT22;35602;44.534;18.696;2023-05-10T03:55:18;22.60;56.40
49711;DHT22;35602;44.534;18.696;2023-05-10T04:00:20;22.50;56.30
49711;DHT22;35602;44.534;18.696;2023-05-10T04:05:20;22.60;56.50
49711;DHT22;35602;44.534;18.696;2023-05-10T04:10:21;22.50;56.50
49711;DHT22;35602;44.534;18.696;2023-05-10T04:15:22;22.60;56.70
49711;DHT22;35602;44.534;18.696;2023-05-10T04:20:23;22.60;56.80
49711;DHT22;35602;44.534;18.696;2023-05-10T04:25:24;22.50;56.70
49711;DHT22;35602;44.534;18.696;2023-05-10T04:30:25;22.50;56.70
49711;DHT22;35602;44.534;18.696;2023-05-10T04:35:26;22.50;56.80
49711;DHT22;35602;44.534;18.696;2023-05-10T04:40:27;22.50;56.70
49711;DHT22;35602;44.534;18.696;2023-05-10T04:45:28;22.50;56.80
49711;DHT22;35602;44.534;18.696;2023-05-10T04:50:29;22.50;56.80
49711;DHT22;35602;44.534;18.696;2023-05-10T04:55:30;22.50;56.90
49711;DHT22;35602;44.534;18.696;2023-05-10T05:00:33;22.50;56.80
49711;DHT22;35602;44.534;18.696;2023-05-10T05:05:34;22.50;56.80
49711;DHT22;35602;44.534;18.696;2023-05-10T05:10:35;22.50;56.80
49711;DHT22;35602;44.534;18.696;2023-05-10T05:15:36;22.50;56.80
49711;DHT22;35602;44.534;18.696;2023-05-10T05:20:39;22.50;56.80
49711;DHT22;35602;44.534;18.696;2023-05-10T05:25:41;22.50;56.80
49711;DHT22;35602;44.534;18.696;2023-05-10T05:30:42;22.50;56.90
49711;DHT22;35602;44.534;18.696;2023-05-10T05:35:43;22.50;56.80
49711;DHT22;35602;44.534;18.696;2023-05-10T05:40:48;22.50;56.80
49711;DHT22;35602;44.534;18.696;2023-05-10T05:45:49;22.50;56.90
49711;DHT22;35602;44.534;18.696;2023-05-10T05:50:50;22.50;56.90
49711;DHT22;35602;44.534;18.696;2023-05-10T05:55:55;22.50;56.90
49711;DHT22;35602;44.534;18.696;2023-05-10T06:00:56;22.50;56.90
49711;DHT22;35602;44.534;18.696;2023-05-10T06:05:57;22.50;56.90
49711;DHT22;35602;44.534;18.696;2023-05-10T06:10:58;22.50;56.90
49711;DHT22;35602;44.534;18.696;2023-05-10T06:15:59;22.50;57.10
49711;DHT22;35602;44.534;18.696;2023-05-10T06:21:00;22.50;56.90
49711;DHT22;35602;44.534;18.696;2023-05-10T06:26:01;22.50;56.90
49711;DHT22;35602;44.534;18.696;2023-05-10T06:31:02;22.50;56.90
49711;DHT22;35602;44.534;18.696;2023-05-10T06:36:03;22.50;56.90
49711;DHT22;35602;44.534;18.696;2023-05-10T06:41:04;22.50;56.80
49711;DHT22;35602;44.534;18.696;2023-05-10T06:46:05;22.50;56.80
49711;DHT22;35602;44.534;18.696;2023-05-10T06:51:07;22.50;56.70
49711;DHT22;35602;44.534;18.696;2023-05-10T06:56:08;22.50;56.70
49711;DHT22;35602;44.534;18.696;2023-05-10T07:01:09;22.50;56.70
49711;DHT22;35602;44.534;18.696;2023-05-10T07:06:10;22.50;56.60
49711;DHT22;35602;44.534;18.696;2023-05-10T07:11:11;22.50;56.70
49711;DHT22;35602;44.534;18.696;2023-05-10T07:16:11;22.50;56.60
49711;DHT22;35602;44.534;18.696;2023-05-10T07:21:12;22.50;56.50
49711;DHT22;35602;44.534;18.696;2023-05-10T07:26:13;22.50;56.50
49711;DHT22;35602;44.534;18.696;2023-05-10T07:31:15;22.50;56.40
49711;DHT22;35602;44.534;18.696;2023-05-10T07:36:16;22.50;56.40
49711;DHT22;35602;44.534;18.696;2023-05-10T07:41:17;22.50;56.40
49711;DHT22;35602;44.534;18.696;2023-05-10T07:46:17;22.50;56.30
49711;DHT22;35602;44.534;18.696;2023-05-10T07:51:20;22.50;56.30
49711;DHT22;35602;44.534;18.696;2023-05-10T07:56:31;22.50;56.30
49711;DHT22;35602;44.534;18.696;2023-05-10T08:01:33;22.50;56.30
49711;DHT22;35602;44.534;18.696;2023-05-10T08:06:34;22.50;56.20
49711;DHT22;35602;44.534;18.696;2023-05-10T08:11:35;22.50;56.20
49711;DHT22;35602;44.534;18.696;2023-05-10T08:16:36;22.50;56.20
49711;DHT22;35602;44.534;18.696;2023-05-10T08:21:36;22.50;56.20
49711;DHT22;35602;44.534;18.696;2023-05-10T08:26:38;22.50;56.20
49711;DHT22;35602;44.534;18.696;2023-05-10T08:31:39;22.50;56.20
49711;DHT22;35602;44.534;18.696;2023-05-10T08:36:39;22.50;56.30
49711;DHT22;35602;44.534;18.696;2023-05-10T08:41:44;22.50;56.20
49711;DHT22;35602;44.534;18.696;2023-05-10T08:46:46;22.50;56.20
49711;DHT22;35602;44.534;18.696;2023-05-10T08:51:55;22.50;56.10
49711;DHT22;35602;44.534;18.696;2023-05-10T08:56:57;22.60;56.20
49711;DHT22;35602;44.534;18.696;2023-05-10T09:01:59;22.60;56.30
49711;DHT22;35602;44.534;18.696;2023-05-10T09:07:00;22.50;56.80
49711;DHT22;35602;44.534;18.696;2023-05-10T09:12:01;22.50;56.10
49711;DHT22;35602;44.534;18.696;2023-05-10T09:17:02;22.50;56.10
49711;DHT22;35602;44.534;18.696;2023-05-10T09:22:03;22.60;56.20
49711;DHT22;35602;44.534;18.696;2023-05-10T09:27:04;22.60;56.20
49711;DHT22;35602;44.534;18.696;2023-05-10T09:32:05;22.60;56.10
49711;DHT22;35602;44.534;18.696;2023-05-10T09:37:06;22.60;56.10
49711;DHT22;35602;44.534;18.696;2023-05-10T09:42:09;22.60;56.10
49711;DHT22;35602;44.534;18.696;2023-05-10T09:47:17;22.60;56.10
49711;DHT22;35602;44.534;18.696;2023-05-10T09:52:20;22.60;56.10
49711;DHT22;35602;44.534;18.696;2023-05-10T09:57:23;22.60;56.30
49711;DHT22;35602;44.534;18.696;2023-05-10T10:02:28;22.60;56.70
49711;DHT22;35602;44.534;18.696;2023-05-10T10:07:29;22.70;56.70
49711;DHT22;35602;44.534;18.696;2023-05-10T10:12:30;22.80;56.90
49711;DHT22;35602;44.534;18.696;2023-05-10T10:17:32;22.80;57.00
49711;DHT22;35602;44.534;18.696;2023-05-10T10:22:36;22.90;57.10
49711;DHT22;35602;44.534;18.696;2023-05-10T10:28:06;22.90;57.20
49711;DHT22;35602;44.534;18.696;2023-05-10T10:33:34;22.90;57.30
49711;DHT22;35602;44.534;18.696;2023-05-10T10:39:37;23.00;57.30
49711;DHT22;35602;44.534;18.696;2023-05-10T10:44:39;23.00;57.60
49711;DHT22;35602;44.534;18.696;2023-05-10T10:56:36;23.00;57.60
49711;DHT22;35602;44.534;18.696;2023-05-10T11:01:44;23.10;57.80
49711;DHT22;35602;44.534;18.696;2023-05-10T11:06:45;23.10;57.60
49711;DHT22;35602;44.534;18.696;2023-05-10T11:11:52;23.10;57.60
49711;DHT22;35602;44.534;18.696;2023-05-10T11:16:55;23.00;57.50
49711;DHT22;35602;44.534;18.696;2023-05-10T11:22:56;23.00;57.50
49711;DHT22;35602;44.534;18.696;2023-05-10T11:27:57;23.00;57.50
49711;DHT22;35602;44.534;18.696;2023-05-10T11:32:58;23.00;57.50
49711;DHT22;35602;44.534;18.696;2023-05-10T11:37:59;23.00;57.60
49711;DHT22;35602;44.534;18.696;2023-05-10T11:42:59;23.00;57.60
49711;DHT22;35602;44.534;18.696;2023-05-10T11:48:01;23.00;57.60
49711;DHT22;35602;44.534;18.696;2023-05-10T11:53:02;23.00;57.60
49711;DHT22;35602;44.534;18.696;2023-05-10T11:58:04;23.00;57.60
49711;DHT22;35602;44.534;18.696;2023-05-10T12:03:05;23.00;57.60
49711;DHT22;35602;44.534;18.696;2023-05-10T12:08:20;23.00;57.60
49711;DHT22;35602;44.534;18.696;2023-05-10T12:13:22;23.00;57.80
49711;DHT22;35602;44.534;18.696;2023-05-10T12:18:23;23.00;57.90
49711;DHT22;35602;44.534;18.696;2023-05-10T12:23:26;23.10;58.10
49711;DHT22;35602;44.534;18.696;2023-05-10T12:28:30;23.10;58.70
49711;DHT22;35602;44.534;18.696;2023-05-10T12:33:41;23.10;58.10
49711;DHT22;35602;44.534;18.696;2023-05-10T12:38:45;23.20;58.20
49711;DHT22;35602;44.534;18.696;2023-05-10T12:43:49;23.20;58.40
49711;DHT22;35602;44.534;18.696;2023-05-10T12:48:50;23.20;58.50
49711;DHT22;35602;44.534;18.696;2023-05-10T12:53:55;23.20;58.50
49711;DHT22;35602;44.534;18.696;2023-05-10T12:58:56;23.20;58.60
49711;DHT22;35602;44.534;18.696;2023-05-10T13:03:56;23.20;58.60
49711;DHT22;35602;44.534;18.696;2023-05-10T13:08:58;23.20;58.80
49711;DHT22;35602;44.534;18.696;2023-05-10T13:13:59;23.20;58.70
49711;DHT22;35602;44.534;18.696;2023-05-10T13:19:00;23.30;58.90
49711;DHT22;35602;44.534;18.696;2023-05-10T13:24:01;23.30;58.90
49711;DHT22;35602;44.534;18.696;2023-05-10T13:29:03;23.30;59.00
49711;DHT22;35602;44.534;18.696;2023-05-10T13:34:05;23.30;59.00
49711;DHT22;35602;44.534;18.696;2023-05-10T13:39:06;23.30;59.00
49711;DHT22;35602;44.534;18.696;2023-05-10T13:44:07;23.30;59.10
49711;DHT22;35602;44.534;18.696;2023-05-10T13:49:11;23.30;59.10
49711;DHT22;35602;44.534;18.696;2023-05-10T13:54:11;23.30;59.20
49711;DHT22;35602;44.534;18.696;2023-05-10T13:59:13;23.30;59.40
49711;DHT22;35602;44.534;18.696;2023-05-10T14:04:14;23.30;59.40
49711;DHT22;35602;44.534;18.696;2023-05-10T14:09:15;23.30;59.50
49711;DHT22;35602;44.534;18.696;2023-05-10T14:14:19;23.30;59.40
49711;DHT22;35602;44.534;18.696;2023-05-10T14:19:20;23.20;59.40
49711;DHT22;35602;44.534;18.696;2023-05-10T14:24:21;23.10;59.40
49711;DHT22;35602;44.534;18.696;2023-05-10T14:29:22;23.10;59.50
49711;DHT22;35602;44.534;18.696;2023-05-10T14:34:23;23.10;59.50
49711;DHT22;35602;44.534;18.696;2023-05-10T14:39:23;23.10;59.50
49711;DHT22;35602;44.534;18.696;2023-05-10T14:44:24;23.00;59.50
49711;DHT22;35602;44.534;18.696;2023-05-10T14:49:25;23.00;59.60
49711;DHT22;35602;44.534;18.696;2023-05-10T14:54:26;23.00;59.40
49711;DHT22;35602;44.534;18.696;2023-05-10T14:59:28;23.00;59.40
49711;DHT22;35602;44.534;18.696;2023-05-10T15:04:31;23.00;59.50
49711;DHT22;35602;44.534;18.696;2023-05-10T15:09:32;23.00;59.50
49711;DHT22;35602;44.534;18.696;2023-05-10T15:14:33;23.00;59.50
49711;DHT22;35602;44.534;18.696;2023-05-10T15:19:36;23.00;59.60
49711;DHT22;35602;44.534;18.696;2023-05-10T15:24:37;22.90;59.40
49711;DHT22;35602;44.534;18.696;2023-05-10T15:29:38;23.00;59.40
49711;DHT22;35602;44.534;18.696;2023-05-10T15:34:39;22.90;59.50
49711;DHT22;35602;44.534;18.696;2023-05-10T15:39:40;22.90;59.50
49711;DHT22;35602;44.534;18.696;2023-05-10T15:44:41;22.90;59.50
49711;DHT22;35602;44.534;18.696;2023-05-10T15:49:41;22.90;59.50
49711;DHT22;35602;44.534;18.696;2023-05-10T15:54:42;22.90;59.40
49711;DHT22;35602;44.534;18.696;2023-05-10T15:59:43;22.90;59.40
49711;DHT22;35602;44.534;18.696;2023-05-10T16:04:44;22.90;59.40
49711;DHT22;35602;44.534;18.696;2023-05-10T16:09:45;22.90;59.40
49711;DHT22;35602;44.534;18.696;2023-05-10T16:14:47;22.90;59.40
49711;DHT22;35602;44.534;18.696;2023-05-10T16:19:48;22.90;59.40
49711;DHT22;35602;44.534;18.696;2023-05-10T16:24:49;22.90;59.40
49711;DHT22;35602;44.534;18.696;2023-05-10T16:29:53;22.90;59.40
49711;DHT22;35602;44.534;18.696;2023-05-10T16:34:55;22.90;59.30
49711;DHT22;35602;44.534;18.696;2023-05-10T16:39:56;22.90;59.40
49711;DHT22;35602;44.534;18.696;2023-05-10T16:44:57;22.90;59.30
49711;DHT22;35602;44.534;18.696;2023-05-10T16:49:58;22.90;59.40
49711;DHT22;35602;44.534;18.696;2023-05-10T16:54:59;22.90;59.30
49711;DHT22;35602;44.534;18.696;2023-05-10T17:00:00;22.90;59.30
49711;DHT22;35602;44.534;18.696;2023-05-10T17:05:01;22.90;59.30
49711;DHT22;35602;44.534;18.696;2023-05-10T17:10:01;22.80;59.30
49711;DHT22;35602;44.534;18.696;2023-05-10T17:15:05;22.90;59.30
49711;DHT22;35602;44.534;18.696;2023-05-10T17:20:07;22.90;59.30
49711;DHT22;35602;44.534;18.696;2023-05-10T17:25:10;22.80;59.20
49711;DHT22;35602;44.534;18.696;2023-05-10T17:30:11;22.90;59.30
49711;DHT22;35602;44.534;18.696;2023-05-10T17:35:14;22.90;59.30
49711;DHT22;35602;44.534;18.696;2023-05-10T17:40:15;22.90;59.30
49711;DHT22;35602;44.534;18.696;2023-05-10T17:45:16;22.90;59.30
49711;DHT22;35602;44.534;18.696;2023-05-10T17:50:17;22.80;59.20
49711;DHT22;35602;44.534;18.696;2023-05-10T17:55:18;22.90;59.30
49711;DHT22;35602;44.534;18.696;2023-05-10T18:00:22;22.80;59.30
49711;DHT22;35602;44.534;18.696;2023-05-10T18:05:22;22.80;59.90
49711;DHT22;35602;44.534;18.696;2023-05-10T18:10:24;22.80;59.30
49711;DHT22;35602;44.534;18.696;2023-05-10T18:15:25;22.80;59.30
49711;DHT22;35602;44.534;18.696;2023-05-10T18:20:27;22.80;59.30
49711;DHT22;35602;44.534;18.696;2023-05-10T18:25:28;22.80;59.40
49711;DHT22;35602;44.534;18.696;2023-05-10T18:30:29;22.80;59.40
49711;DHT22;35602;44.534;18.696;2023-05-10T18:35:30;22.80;59.40
49711;DHT22;35602;44.534;18.696;2023-05-10T18:40:31;22.80;59.50
49711;DHT22;35602;44.534;18.696;2023-05-10T18:45:32;22.80;59.40
49711;DHT22;35602;44.534;18.696;2023-05-10T18:50:33;22.90;59.50
49711;DHT22;35602;44.534;18.696;2023-05-10T18:55:33;22.80;59.50
49711;DHT22;35602;44.534;18.696;2023-05-10T19:00:34;22.80;60.10
49711;DHT22;35602;44.534;18.696;2023-05-10T19:05:35;22.80;59.50
49711;DHT22;35602;44.534;18.696;2023-05-10T19:10:36;22.80;59.50
49711;DHT22;35602;44.534;18.696;2023-05-10T19:15:37;22.90;59.60
49711;DHT22;35602;44.534;18.696;2023-05-10T19:20:37;22.80;60.30
49711;DHT22;35602;44.534;18.696;2023-05-10T19:25:38;22.80;59.60
49711;DHT22;35602;44.534;18.696;2023-05-10T19:30:41;22.80;59.60
49711;DHT22;35602;44.534;18.696;2023-05-10T19:35:42;22.90;59.60
49711;DHT22;35602;44.534;18.696;2023-05-10T19:40:43;22.80;59.60
49711;DHT22;35602;44.534;18.696;2023-05-10T19:45:44;22.80;59.60
49711;DHT22;35602;44.534;18.696;2023-05-10T19:50:45;22.80;59.60
49711;DHT22;35602;44.534;18.696;2023-05-10T19:55:45;22.80;59.70
49711;DHT22;35602;44.534;18.696;2023-05-10T20:00:47;22.80;59.70
49711;DHT22;35602;44.534;18.696;2023-05-10T20:05:48;22.80;59.60
49711;DHT22;35602;44.534;18.696;2023-05-10T20:10:49;22.80;59.70
49711;DHT22;35602;44.534;18.696;2023-05-10T20:15:54;22.80;59.90
49711;DHT22;35602;44.534;18.696;2023-05-10T20:20:57;22.80;59.80
49711;DHT22;35602;44.534;18.696;2023-05-10T20:25:58;22.80;59.70
49711;DHT22;35602;44.534;18.696;2023-05-10T20:30:59;22.80;59.70
49711;DHT22;35602;44.534;18.696;2023-05-10T20:36:04;22.80;59.70
49711;DHT22;35602;44.534;18.696;2023-05-10T20:41:05;22.80;59.80
49711;DHT22;35602;44.534;18.696;2023-05-10T20:46:06;22.80;59.70
49711;DHT22;35602;44.534;18.696;2023-05-10T20:51:07;22.80;59.80
49711;DHT22;35602;44.534;18.696;2023-05-10T20:56:09;22.80;59.80
49711;DHT22;35602;44.534;18.696;2023-05-10T21:01:12;22.80;59.80
49711;DHT22;35602;44.534;18.696;2023-05-10T21:06:13;22.80;59.80
49711;DHT22;35602;44.534;18.696;2023-05-10T21:11:14;22.80;59.90
49711;DHT22;35602;44.534;18.696;2023-05-10T21:16:15;22.80;59.80
49711;DHT22;35602;44.534;18.696;2023-05-10T21:21:16;22.80;59.80
49711;DHT22;35602;44.534;18.696;2023-05-10T21:26:17;22.80;59.90
49711;DHT22;35602;44.534;18.696;2023-05-10T21:31:17;22.80;59.80
49711;DHT22;35602;44.534;18.696;2023-05-10T21:36:18;22.80;59.90
49711;DHT22;35602;44.534;18.696;2023-05-10T21:41:19;22.80;59.80
49711;DHT22;35602;44.534;18.696;2023-05-10T21:46:21;22.80;59.80
49711;DHT22;35602;44.534;18.696;2023-05-10T21:51:25;22.80;59.80
49711;DHT22;35602;44.534;18.696;2023-05-10T21:56:26;22.80;59.90
49711;DHT22;35602;44.534;18.696;2023-05-10T22:01:27;22.80;59.90
49711;DHT22;35602;44.534;18.696;2023-05-10T22:06:27;22.80;59.90
49711;DHT22;35602;44.534;18.696;2023-05-10T22:11:29;22.80;59.80
49711;DHT22;35602;44.534;18.696;2023-05-10T22:16:30;22.80;59.80
49711;DHT22;35602;44.534;18.696;2023-05-10T22:21:31;22.80;59.90
49711;DHT22;35602;44.534;18.696;2023-05-10T22:26:31;22.80;59.90
49711;DHT22;35602;44.534;18.696;2023-05-10T22:31:32;22.80;59.90
49711;DHT22;35602;44.534;18.696;2023-05-10T22:36:33;22.80;59.90
49711;DHT22;35602;44.534;18.696;2023-05-10T22:41:34;22.80;59.80
49711;DHT22;35602;44.534;18.696;2023-05-10T22:46:35;22.80;59.90
49711;DHT22;35602;44.534;18.696;2023-05-10T22:51:36;22.80;59.90
49711;DHT22;35602;44.534;18.696;2023-05-10T22:56:37;22.70;59.80
49711;DHT22;35602;44.534;18.696;2023-05-10T23:01:38;22.70;59.80
49711;DHT22;35602;44.534;18.696;2023-05-10T23:06:39;22.80;59.90
49711;DHT22;35602;44.534;18.696;2023-05-10T23:11:40;22.70;59.90
49711;DHT22;35602;44.534;18.696;2023-05-10T23:16:41;22.80;59.90
49711;DHT22;35602;44.534;18.696;2023-05-10T23:21:42;22.80;59.90
49711;DHT22;35602;44.534;18.696;2023-05-10T23:26:43;22.70;59.80
49711;DHT22;35602;44.534;18.696;2023-05-10T23:31:49;22.70;59.80
49711;DHT22;35602;44.534;18.696;2023-05-10T23:36:50;22.80;59.90
49711;DHT22;35602;44.534;18.696;2023-05-10T23:41:51;22.70;59.80
49711;DHT22;35602;44.534;18.696;2023-05-10T23:46:52;22.70;59.80
49711;DHT22;35602;44.534;18.696;2023-05-10T23:51:53;22.70;59.80
49711;DHT22;35602;44.534;18.696;2023-05-10T23:56:53;22.80;59.80
